sensor_id;sensor_type;location;lat;lon;timestamp;temperature;humidity
13976;DHT22;7062;49.792;9.946;2023-08-24T00:01:15;21.90;99.90
13976;DHT22;7062;49.792;9.946;2023-08-24T00:03:44;21.90;99.90
13976;DHT22;7062;49.792;9.946;2023-08-24T00:06:09;21.70;99.90
13976;DHT22;7062;49.792;9.946;2023-08-24T00:08:36;21.60;99.90
13976;DHT22;7062;49.792;9.946;2023-08-24T00:11:02;21.60;99.90
13976;DHT22;7062;49.792;9.946;2023-08-24T00:13:28;21.70;99.90
13976;DHT22;7062;49.792;9.946;2023-08-24T00:15:54;21.70;99.90
13976;DHT22;7062;49.792;9.946;2023-08-24T00:18:20;21.70;99.90
13976;DHT22;7062;49.792;9.946;2023-08-24T00:20:48;21.70;99.90
13976;DHT22;7062;49.792;9.946;2023-08-24T00:23:14;21.70;99.90
13976;DHT22;7062;49.792;9.946;2023-08-24T00:25:39;22.30;99.90
13976;DHT22;7062;49.792;9.946;2023-08-24T00:28:06;21.50;99.90
13976;DHT22;7062;49.792;9.946;2023-08-24T00:30:32;21.40;99.90
13976;DHT22;7062;49.792;9.946;2023-08-24T00:32:58;21.40;99.90
13976;DHT22;7062;49.792;9.946;2023-08-24T00:35:24;21.40;99.90
13976;DHT22;7062;49.792;9.946;2023-08-24T00:37:50;21.50;99.90
13976;DHT22;7062;49.792;9.946;2023-08-24T00:40:16;21.40;99.90
13976;DHT22;7062;49.792;9.946;2023-08-24T00:42:45;21.40;99.90
13976;DHT22;7062;49.792;9.946;2023-08-24T00:45:14;21.50;99.90
13976;DHT22;7062;49.792;9.946;2023-08-24T00:47:44;21.60;99.90
13976;DHT22;7062;49.792;9.946;2023-08-24T00:50:10;21.70;99.90
13976;DHT22;7062;49.792;9.946;2023-08-24T00:52:38;21.70;99.90
13976;DHT22;7062;49.792;9.946;2023-08-24T00:55:05;21.60;99.90
13976;DHT22;7062;49.792;9.946;2023-08-24T00:57:32;21.50;99.90
13976;DHT22;7062;49.792;9.946;2023-08-24T00:59:59;21.50;99.90
13976;DHT22;7062;49.792;9.946;2023-08-24T01:02:25;21.40;99.90
13976;DHT22;7062;49.792;9.946;2023-08-24T01:04:51;21.50;99.90
13976;DHT22;7062;49.792;9.946;2023-08-24T01:07:17;21.60;99.90
13976;DHT22;7062;49.792;9.946;2023-08-24T01:09:44;21.50;99.90
13976;DHT22;7062;49.792;9.946;2023-08-24T01:12:35;21.30;99.90
13976;DHT22;7062;49.792;9.946;2023-08-24T01:17:55;21.20;99.90
13976;DHT22;7062;49.792;9.946;2023-08-24T01:20:22;21.30;99.90
13976;DHT22;7062;49.792;9.946;2023-08-24T01:25:35;21.10;99.90
13976;DHT22;7062;49.792;9.946;2023-08-24T01:28:03;21.20;99.90
13976;DHT22;7062;49.792;9.946;2023-08-24T01:30:29;21.40;99.90
13976;DHT22;7062;49.792;9.946;2023-08-24T01:32:56;21.40;99.90
13976;DHT22;7062;49.792;9.946;2023-08-24T01:35:22;21.30;99.90
13976;DHT22;7062;49.792;9.946;2023-08-24T01:37:47;21.30;99.90
13976;DHT22;7062;49.792;9.946;2023-08-24T01:40:17;21.20;99.90
13976;DHT22;7062;49.792;9.946;2023-08-24T01:43:03;21.20;99.90
13976;DHT22;7062;49.792;9.946;2023-08-24T01:45:30;21.20;99.90
13976;DHT22;7062;49.792;9.946;2023-08-24T01:47:57;21.10;99.90
13976;DHT22;7062;49.792;9.946;2023-08-24T01:50:24;21.10;99.90
13976;DHT22;7062;49.792;9.946;2023-08-24T01:52:50;21.10;99.90
13976;DHT22;7062;49.792;9.946;2023-08-24T01:55:19;21.10;99.90
13976;DHT22;7062;49.792;9.946;2023-08-24T01:57:45;21.10;99.90
13976;DHT22;7062;49.792;9.946;2023-08-24T02:00:11;21.00;99.90
13976;DHT22;7062;49.792;9.946;2023-08-24T02:02:37;20.80;99.90
13976;DHT22;7062;49.792;9.946;2023-08-24T02:05:03;20.80;99.90
13976;DHT22;7062;49.792;9.946;2023-08-24T02:07:29;20.70;99.90
13976;DHT22;7062;49.792;9.946;2023-08-24T02:09:55;20.70;99.90
13976;DHT22;7062;49.792;9.946;2023-08-24T02:12:21;20.70;99.90
13976;DHT22;7062;49.792;9.946;2023-08-24T02:14:46;20.70;99.90
13976;DHT22;7062;49.792;9.946;2023-08-24T02:17:12;20.70;99.90
13976;DHT22;7062;49.792;9.946;2023-08-24T02:19:39;20.70;99.90
13976;DHT22;7062;49.792;9.946;2023-08-24T02:22:07;20.70;99.90
13976;DHT22;7062;49.792;9.946;2023-08-24T02:24:33;20.70;99.90
13976;DHT22;7062;49.792;9.946;2023-08-24T02:26:59;20.60;99.90
13976;DHT22;7062;49.792;9.946;2023-08-24T02:29:24;20.50;99.90
13976;DHT22;7062;49.792;9.946;2023-08-24T02:31:50;20.50;99.90
13976;DHT22;7062;49.792;9.946;2023-08-24T02:34:16;20.40;99.90
13976;DHT22;7062;49.792;9.946;2023-08-24T02:36:42;20.40;99.90
13976;DHT22;7062;49.792;9.946;2023-08-24T02:39:07;20.40;99.90
13976;DHT22;7062;49.792;9.946;2023-08-24T02:41:34;20.40;99.90
13976;DHT22;7062;49.792;9.946;2023-08-24T02:44:00;20.40;99.90
13976;DHT22;7062;49.792;9.946;2023-08-24T02:46:26;20.40;99.90
13976;DHT22;7062;49.792;9.946;2023-08-24T02:48:52;20.40;99.90
13976;DHT22;7062;49.792;9.946;2023-08-24T02:51:17;20.40;99.90
13976;DHT22;7062;49.792;9.946;2023-08-24T02:53:43;20.40;99.90
13976;DHT22;7062;49.792;9.946;2023-08-24T02:56:09;20.40;99.90
13976;DHT22;7062;49.792;9.946;2023-08-24T02:58:34;20.30;99.90
13976;DHT22;7062;49.792;9.946;2023-08-24T03:01:07;20.30;99.90
13976;DHT22;7062;49.792;9.946;2023-08-24T03:03:36;20.30;99.90
13976;DHT22;7062;49.792;9.946;2023-08-24T03:06:04;20.30;99.90
13976;DHT22;7062;49.792;9.946;2023-08-24T03:08:31;20.20;99.90
13976;DHT22;7062;49.792;9.946;2023-08-24T03:11:01;20.20;99.90
13976;DHT22;7062;49.792;9.946;2023-08-24T03:13:27;20.20;99.90
13976;DHT22;7062;49.792;9.946;2023-08-24T03:15:53;20.00;99.90
13976;DHT22;7062;49.792;9.946;2023-08-24T03:18:19;20.00;99.90
13976;DHT22;7062;49.792;9.946;2023-08-24T03:20:46;20.00;99.90
13976;DHT22;7062;49.792;9.946;2023-08-24T03:23:12;20.00;99.90
13976;DHT22;7062;49.792;9.946;2023-08-24T03:25:39;20.00;99.90
13976;DHT22;7062;49.792;9.946;2023-08-24T03:28:06;20.00;99.90
13976;DHT22;7062;49.792;9.946;2023-08-24T03:30:39;20.00;99.90
13976;DHT22;7062;49.792;9.946;2023-08-24T03:33:05;20.10;99.90
13976;DHT22;7062;49.792;9.946;2023-08-24T03:35:31;20.10;99.90
13976;DHT22;7062;49.792;9.946;2023-08-24T03:37:57;20.10;99.90
13976;DHT22;7062;49.792;9.946;2023-08-24T03:40:23;20.10;99.90
13976;DHT22;7062;49.792;9.946;2023-08-24T03:42:49;20.00;99.90
13976;DHT22;7062;49.792;9.946;2023-08-24T03:45:14;20.00;99.90
13976;DHT22;7062;49.792;9.946;2023-08-24T03:47:40;20.00;99.90
13976;DHT22;7062;49.792;9.946;2023-08-24T03:50:06;20.00;99.90
13976;DHT22;7062;49.792;9.946;2023-08-24T03:52:32;19.90;99.90
13976;DHT22;7062;49.792;9.946;2023-08-24T03:54:58;19.80;99.90
13976;DHT22;7062;49.792;9.946;2023-08-24T03:57:24;19.80;99.90
13976;DHT22;7062;49.792;9.946;2023-08-24T03:59:50;19.80;99.90
13976;DHT22;7062;49.792;9.946;2023-08-24T04:02:16;19.80;99.90
13976;DHT22;7062;49.792;9.946;2023-08-24T04:04:41;19.80;99.90
13976;DHT22;7062;49.792;9.946;2023-08-24T04:07:07;19.80;99.90
13976;DHT22;7062;49.792;9.946;2023-08-24T04:09:33;19.80;99.90
13976;DHT22;7062;49.792;9.946;2023-08-24T04:11:58;19.80;99.90
13976;DHT22;7062;49.792;9.946;2023-08-24T04:14:24;19.80;99.90
13976;DHT22;7062;49.792;9.946;2023-08-24T04:16:50;19.80;99.90
13976;DHT22;7062;49.792;9.946;2023-08-24T04:19:15;19.90;99.90
13976;DHT22;7062;49.792;9.946;2023-08-24T04:21:41;20.00;99.90
13976;DHT22;7062;49.792;9.946;2023-08-24T04:24:07;20.00;99.90
13976;DHT22;7062;49.792;9.946;2023-08-24T04:26:32;19.90;99.90
13976;DHT22;7062;49.792;9.946;2023-08-24T04:28:58;19.90;99.90
13976;DHT22;7062;49.792;9.946;2023-08-24T04:31:23;19.80;99.90
13976;DHT22;7062;49.792;9.946;2023-08-24T04:33:49;19.80;99.90
13976;DHT22;7062;49.792;9.946;2023-08-24T04:36:15;19.90;99.90
13976;DHT22;7062;49.792;9.946;2023-08-24T04:38:40;20.00;99.90
13976;DHT22;7062;49.792;9.946;2023-08-24T04:41:08;20.10;99.90
13976;DHT22;7062;49.792;9.946;2023-08-24T04:43:34;20.20;99.90
13976;DHT22;7062;49.792;9.946;2023-08-24T04:46:02;20.10;99.90
13976;DHT22;7062;49.792;9.946;2023-08-24T04:48:28;20.10;99.90
13976;DHT22;7062;49.792;9.946;2023-08-24T04:51:02;20.10;99.90
13976;DHT22;7062;49.792;9.946;2023-08-24T04:53:28;20.10;99.90
13976;DHT22;7062;49.792;9.946;2023-08-24T04:55:54;20.00;99.90
13976;DHT22;7062;49.792;9.946;2023-08-24T04:58:20;19.90;99.90
13976;DHT22;7062;49.792;9.946;2023-08-24T05:00:46;20.00;99.90
13976;DHT22;7062;49.792;9.946;2023-08-24T05:03:12;20.00;99.90
13976;DHT22;7062;49.792;9.946;2023-08-24T05:05:38;20.10;99.90
13976;DHT22;7062;49.792;9.946;2023-08-24T05:08:05;20.30;99.90
13976;DHT22;7062;49.792;9.946;2023-08-24T05:10:37;20.40;99.90
13976;DHT22;7062;49.792;9.946;2023-08-24T05:13:03;20.40;99.90
13976;DHT22;7062;49.792;9.946;2023-08-24T05:15:29;20.40;99.90
13976;DHT22;7062;49.792;9.946;2023-08-24T05:17:54;20.50;99.90
13976;DHT22;7062;49.792;9.946;2023-08-24T05:20:24;20.40;99.90
13976;DHT22;7062;49.792;9.946;2023-08-24T05:22:50;20.30;99.90
13976;DHT22;7062;49.792;9.946;2023-08-24T05:25:16;20.30;99.90
13976;DHT22;7062;49.792;9.946;2023-08-24T05:27:42;20.30;99.90
13976;DHT22;7062;49.792;9.946;2023-08-24T05:30:08;20.30;99.90
13976;DHT22;7062;49.792;9.946;2023-08-24T05:32:34;20.30;99.90
13976;DHT22;7062;49.792;9.946;2023-08-24T05:35:04;20.40;99.90
13976;DHT22;7062;49.792;9.946;2023-08-24T05:37:30;20.50;99.90
13976;DHT22;7062;49.792;9.946;2023-08-24T05:39:56;20.60;99.90
13976;DHT22;7062;49.792;9.946;2023-08-24T05:42:21;20.70;99.90
13976;DHT22;7062;49.792;9.946;2023-08-24T05:44:47;20.80;99.90
13976;DHT22;7062;49.792;9.946;2023-08-24T05:47:13;20.80;99.90
13976;DHT22;7062;49.792;9.946;2023-08-24T05:49:38;20.90;99.90
13976;DHT22;7062;49.792;9.946;2023-08-24T05:52:04;20.90;99.90
13976;DHT22;7062;49.792;9.946;2023-08-24T05:54:30;20.90;99.90
13976;DHT22;7062;49.792;9.946;2023-08-24T05:56:56;21.00;99.90
13976;DHT22;7062;49.792;9.946;2023-08-24T05:59:26;20.90;99.90
13976;DHT22;7062;49.792;9.946;2023-08-24T06:01:52;21.00;99.90
13976;DHT22;7062;49.792;9.946;2023-08-24T06:04:17;21.10;99.90
13976;DHT22;7062;49.792;9.946;2023-08-24T06:06:43;21.20;99.90
13976;DHT22;7062;49.792;9.946;2023-08-24T06:09:08;21.20;99.90
13976;DHT22;7062;49.792;9.946;2023-08-24T06:11:35;21.30;99.90
13976;DHT22;7062;49.792;9.946;2023-08-24T06:14:01;21.40;99.90
13976;DHT22;7062;49.792;9.946;2023-08-24T06:16:28;21.50;99.90
13976;DHT22;7062;49.792;9.946;2023-08-24T06:18:54;21.50;99.90
13976;DHT22;7062;49.792;9.946;2023-08-24T06:21:20;21.50;99.90
13976;DHT22;7062;49.792;9.946;2023-08-24T06:23:45;21.60;99.90
13976;DHT22;7062;49.792;9.946;2023-08-24T06:26:13;21.60;99.90
13976;DHT22;7062;49.792;9.946;2023-08-24T06:28:38;21.60;99.90
13976;DHT22;7062;49.792;9.946;2023-08-24T06:31:04;21.50;99.90
13976;DHT22;7062;49.792;9.946;2023-08-24T06:33:39;21.50;99.90
13976;DHT22;7062;49.792;9.946;2023-08-24T06:36:05;21.40;99.90
13976;DHT22;7062;49.792;9.946;2023-08-24T06:38:31;21.40;99.90
13976;DHT22;7062;49.792;9.946;2023-08-24T06:41:00;21.40;99.90
13976;DHT22;7062;49.792;9.946;2023-08-24T06:43:26;21.40;99.90
13976;DHT22;7062;49.792;9.946;2023-08-24T06:45:53;21.40;99.90
13976;DHT22;7062;49.792;9.946;2023-08-24T06:48:19;21.40;99.90
13976;DHT22;7062;49.792;9.946;2023-08-24T06:50:45;21.20;99.90
13976;DHT22;7062;49.792;9.946;2023-08-24T06:53:10;21.20;99.90
13976;DHT22;7062;49.792;9.946;2023-08-24T06:55:36;21.20;99.90
13976;DHT22;7062;49.792;9.946;2023-08-24T06:58:02;21.30;99.90
13976;DHT22;7062;49.792;9.946;2023-08-24T07:00:31;21.40;99.90
13976;DHT22;7062;49.792;9.946;2023-08-24T07:02:56;21.50;99.90
13976;DHT22;7062;49.792;9.946;2023-08-24T07:05:23;21.50;99.90
13976;DHT22;7062;49.792;9.946;2023-08-24T07:07:52;21.50;99.90
13976;DHT22;7062;49.792;9.946;2023-08-24T07:10:19;21.60;99.90
13976;DHT22;7062;49.792;9.946;2023-08-24T07:12:45;21.70;99.90
13976;DHT22;7062;49.792;9.946;2023-08-24T07:15:12;21.90;99.90
13976;DHT22;7062;49.792;9.946;2023-08-24T07:17:38;22.10;99.90
13976;DHT22;7062;49.792;9.946;2023-08-24T07:20:04;22.20;99.90
13976;DHT22;7062;49.792;9.946;2023-08-24T07:22:39;22.30;99.90
13976;DHT22;7062;49.792;9.946;2023-08-24T07:25:05;22.10;99.90
13976;DHT22;7062;49.792;9.946;2023-08-24T07:27:33;22.30;99.90
13976;DHT22;7062;49.792;9.946;2023-08-24T07:30:00;22.40;99.90
13976;DHT22;7062;49.792;9.946;2023-08-24T07:32:26;22.70;99.90
13976;DHT22;7062;49.792;9.946;2023-08-24T07:34:52;22.90;99.90
13976;DHT22;7062;49.792;9.946;2023-08-24T07:37:18;23.00;99.90
13976;DHT22;7062;49.792;9.946;2023-08-24T07:39:44;23.00;99.90
13976;DHT22;7062;49.792;9.946;2023-08-24T07:42:09;23.00;99.90
13976;DHT22;7062;49.792;9.946;2023-08-24T07:44:35;23.20;99.90
13976;DHT22;7062;49.792;9.946;2023-08-24T07:47:01;23.40;99.90
13976;DHT22;7062;49.792;9.946;2023-08-24T07:49:27;23.50;99.90
13976;DHT22;7062;49.792;9.946;2023-08-24T07:51:52;23.50;99.90
13976;DHT22;7062;49.792;9.946;2023-08-24T07:54:18;23.70;99.90
13976;DHT22;7062;49.792;9.946;2023-08-24T07:56:44;23.80;99.90
13976;DHT22;7062;49.792;9.946;2023-08-24T07:59:09;23.90;99.90
13976;DHT22;7062;49.792;9.946;2023-08-24T08:01:35;24.10;99.90
13976;DHT22;7062;49.792;9.946;2023-08-24T08:04:01;24.20;99.90
13976;DHT22;7062;49.792;9.946;2023-08-24T08:06:26;24.20;99.90
13976;DHT22;7062;49.792;9.946;2023-08-24T08:08:53;24.10;99.90
13976;DHT22;7062;49.792;9.946;2023-08-24T08:11:18;24.10;99.90
13976;DHT22;7062;49.792;9.946;2023-08-24T08:13:44;24.10;99.90
13976;DHT22;7062;49.792;9.946;2023-08-24T08:16:10;24.10;99.90
13976;DHT22;7062;49.792;9.946;2023-08-24T08:18:36;24.00;99.90
13976;DHT22;7062;49.792;9.946;2023-08-24T08:21:15;24.00;99.90
13976;DHT22;7062;49.792;9.946;2023-08-24T08:23:43;23.90;99.90
13976;DHT22;7062;49.792;9.946;2023-08-24T08:26:12;24.00;99.90
13976;DHT22;7062;49.792;9.946;2023-08-24T08:28:41;24.20;99.90
13976;DHT22;7062;49.792;9.946;2023-08-24T08:31:06;24.40;99.90
13976;DHT22;7062;49.792;9.946;2023-08-24T08:33:32;24.70;99.90
13976;DHT22;7062;49.792;9.946;2023-08-24T08:35:58;24.90;99.90
13976;DHT22;7062;49.792;9.946;2023-08-24T08:38:24;25.10;99.90
13976;DHT22;7062;49.792;9.946;2023-08-24T08:40:56;25.30;99.90
13976;DHT22;7062;49.792;9.946;2023-08-24T08:43:27;25.50;99.90
13976;DHT22;7062;49.792;9.946;2023-08-24T08:45:54;25.70;99.90
13976;DHT22;7062;49.792;9.946;2023-08-24T08:48:21;26.00;99.90
13976;DHT22;7062;49.792;9.946;2023-08-24T08:50:51;26.10;99.90
13976;DHT22;7062;49.792;9.946;2023-08-24T08:53:20;26.30;99.90
13976;DHT22;7062;49.792;9.946;2023-08-24T08:55:46;26.60;99.90
13976;DHT22;7062;49.792;9.946;2023-08-24T08:58:12;26.60;99.90
13976;DHT22;7062;49.792;9.946;2023-08-24T09:00:39;26.70;99.90
13976;DHT22;7062;49.792;9.946;2023-08-24T09:03:06;26.60;99.90
13976;DHT22;7062;49.792;9.946;2023-08-24T09:05:32;26.80;99.90
13976;DHT22;7062;49.792;9.946;2023-08-24T09:07:58;27.10;99.90
13976;DHT22;7062;49.792;9.946;2023-08-24T09:10:25;27.30;99.90
13976;DHT22;7062;49.792;9.946;2023-08-24T09:12:51;27.50;99.90
13976;DHT22;7062;49.792;9.946;2023-08-24T09:15:24;27.60;99.90
13976;DHT22;7062;49.792;9.946;2023-08-24T09:17:51;27.80;99.90
13976;DHT22;7062;49.792;9.946;2023-08-24T09:20:17;28.00;99.90
13976;DHT22;7062;49.792;9.946;2023-08-24T09:22:43;28.20;99.90
13976;DHT22;7062;49.792;9.946;2023-08-24T09:25:10;28.20;99.90
13976;DHT22;7062;49.792;9.946;2023-08-24T09:27:36;27.90;99.90
13976;DHT22;7062;49.792;9.946;2023-08-24T09:30:02;27.70;99.90
13976;DHT22;7062;49.792;9.946;2023-08-24T09:32:28;27.60;99.90
13976;DHT22;7062;49.792;9.946;2023-08-24T09:34:55;27.90;99.90
13976;DHT22;7062;49.792;9.946;2023-08-24T09:37:21;28.30;99.90
13976;DHT22;7062;49.792;9.946;2023-08-24T09:39:47;28.50;99.90
13976;DHT22;7062;49.792;9.946;2023-08-24T09:42:13;28.20;99.90
13976;DHT22;7062;49.792;9.946;2023-08-24T09:44:45;27.90;99.90
13976;DHT22;7062;49.792;9.946;2023-08-24T09:47:11;28.50;99.90
13976;DHT22;7062;49.792;9.946;2023-08-24T09:49:37;28.40;99.90
13976;DHT22;7062;49.792;9.946;2023-08-24T09:52:06;28.40;99.90
13976;DHT22;7062;49.792;9.946;2023-08-24T09:54:37;28.50;99.90
13976;DHT22;7062;49.792;9.946;2023-08-24T09:57:06;28.60;99.90
13976;DHT22;7062;49.792;9.946;2023-08-24T09:59:37;29.90;99.90
13976;DHT22;7062;49.792;9.946;2023-08-24T10:02:14;31.40;99.90
13976;DHT22;7062;49.792;9.946;2023-08-24T10:04:41;32.30;99.20
13976;DHT22;7062;49.792;9.946;2023-08-24T10:07:13;33.70;96.40
13976;DHT22;7062;49.792;9.946;2023-08-24T10:09:56;34.90;93.90
13976;DHT22;7062;49.792;9.946;2023-08-24T10:12:26;35.50;92.40
13976;DHT22;7062;49.792;9.946;2023-08-24T10:15:01;34.60;92.00
13976;DHT22;7062;49.792;9.946;2023-08-24T10:17:32;33.40;92.60
13976;DHT22;7062;49.792;9.946;2023-08-24T10:19:59;32.50;93.30
13976;DHT22;7062;49.792;9.946;2023-08-24T10:22:28;31.60;94.30
13976;DHT22;7062;49.792;9.946;2023-08-24T10:24:54;31.50;94.30
13976;DHT22;7062;49.792;9.946;2023-08-24T10:27:22;31.30;94.30
13976;DHT22;7062;49.792;9.946;2023-08-24T10:29:49;31.50;94.40
13976;DHT22;7062;49.792;9.946;2023-08-24T10:32:15;32.90;92.70
13976;DHT22;7062;49.792;9.946;2023-08-24T10:34:41;33.90;91.40
13976;DHT22;7062;49.792;9.946;2023-08-24T10:37:08;33.70;90.60
13976;DHT22;7062;49.792;9.946;2023-08-24T10:39:35;33.80;90.00
13976;DHT22;7062;49.792;9.946;2023-08-24T10:42:03;34.30;89.00
13976;DHT22;7062;49.792;9.946;2023-08-24T10:44:39;35.00;87.80
13976;DHT22;7062;49.792;9.946;2023-08-24T10:47:12;35.40;86.20
13976;DHT22;7062;49.792;9.946;2023-08-24T10:49:39;35.60;83.50
13976;DHT22;7062;49.792;9.946;2023-08-24T10:52:21;35.60;82.50
13976;DHT22;7062;49.792;9.946;2023-08-24T10:54:49;35.80;81.10
13976;DHT22;7062;49.792;9.946;2023-08-24T10:57:27;35.50;80.10
13976;DHT22;7062;49.792;9.946;2023-08-24T11:02:50;35.30;81.90
13976;DHT22;7062;49.792;9.946;2023-08-24T11:07:49;36.70;79.10
13976;DHT22;7062;49.792;9.946;2023-08-24T11:10:16;36.50;78.80
13976;DHT22;7062;49.792;9.946;2023-08-24T11:15:45;38.40;74.80
13976;DHT22;7062;49.792;9.946;2023-08-24T11:18:25;38.20;74.00
13976;DHT22;7062;49.792;9.946;2023-08-24T11:20:56;38.80;73.00
13976;DHT22;7062;49.792;9.946;2023-08-24T11:23:23;38.60;71.70
13976;DHT22;7062;49.792;9.946;2023-08-24T11:25:51;37.80;72.70
13976;DHT22;7062;49.792;9.946;2023-08-24T11:28:22;38.30;72.40
13976;DHT22;7062;49.792;9.946;2023-08-24T11:30:48;37.30;72.70
13976;DHT22;7062;49.792;9.946;2023-08-24T11:33:14;37.30;72.00
13976;DHT22;7062;49.792;9.946;2023-08-24T11:35:44;36.80;72.70
13976;DHT22;7062;49.792;9.946;2023-08-24T11:38:11;37.10;73.00
13976;DHT22;7062;49.792;9.946;2023-08-24T11:40:37;37.20;72.40
13976;DHT22;7062;49.792;9.946;2023-08-24T11:43:03;36.40;73.50
13976;DHT22;7062;49.792;9.946;2023-08-24T11:45:32;36.40;73.80
13976;DHT22;7062;49.792;9.946;2023-08-24T11:47:59;35.70;75.20
13976;DHT22;7062;49.792;9.946;2023-08-24T11:50:30;34.70;76.30
13976;DHT22;7062;49.792;9.946;2023-08-24T11:52:56;33.40;78.50
13976;DHT22;7062;49.792;9.946;2023-08-24T11:55:22;33.00;80.00
13976;DHT22;7062;49.792;9.946;2023-08-24T11:57:48;32.80;80.80
13976;DHT22;7062;49.792;9.946;2023-08-24T12:00:14;33.60;79.30
13976;DHT22;7062;49.792;9.946;2023-08-24T12:02:42;34.20;77.90
13976;DHT22;7062;49.792;9.946;2023-08-24T12:05:08;35.70;75.50
13976;DHT22;7062;49.792;9.946;2023-08-24T12:07:45;37.10;72.70
13976;DHT22;7062;49.792;9.946;2023-08-24T12:10:12;37.80;70.60
13976;DHT22;7062;49.792;9.946;2023-08-24T12:12:38;38.30;69.50
13976;DHT22;7062;49.792;9.946;2023-08-24T12:15:04;38.70;69.10
13976;DHT22;7062;49.792;9.946;2023-08-24T12:17:31;38.60;68.90
13976;DHT22;7062;49.792;9.946;2023-08-24T12:20:07;39.20;68.00
13976;DHT22;7062;49.792;9.946;2023-08-24T12:22:38;39.90;67.10
13976;DHT22;7062;49.792;9.946;2023-08-24T12:25:04;41.40;65.80
13976;DHT22;7062;49.792;9.946;2023-08-24T12:27:31;41.80;64.00
13976;DHT22;7062;49.792;9.946;2023-08-24T12:30:01;42.10;62.60
13976;DHT22;7062;49.792;9.946;2023-08-24T12:32:50;42.80;61.40
13976;DHT22;7062;49.792;9.946;2023-08-24T12:35:16;43.60;59.60
13976;DHT22;7062;49.792;9.946;2023-08-24T12:37:43;44.50;58.30
13976;DHT22;7062;49.792;9.946;2023-08-24T12:40:08;44.60;57.00
13976;DHT22;7062;49.792;9.946;2023-08-24T12:42:34;43.80;56.80
13976;DHT22;7062;49.792;9.946;2023-08-24T12:45:00;43.40;57.30
13976;DHT22;7062;49.792;9.946;2023-08-24T12:47:26;42.10;58.50
13976;DHT22;7062;49.792;9.946;2023-08-24T12:49:52;42.40;58.00
13976;DHT22;7062;49.792;9.946;2023-08-24T12:52:20;42.40;58.00
13976;DHT22;7062;49.792;9.946;2023-08-24T12:54:45;41.50;59.20
13976;DHT22;7062;49.792;9.946;2023-08-24T12:57:11;41.80;58.20
13976;DHT22;7062;49.792;9.946;2023-08-24T12:59:38;41.20;59.00
13976;DHT22;7062;49.792;9.946;2023-08-24T13:02:03;41.50;59.00
13976;DHT22;7062;49.792;9.946;2023-08-24T13:04:30;42.10;58.20
13976;DHT22;7062;49.792;9.946;2023-08-24T13:06:57;42.50;57.20
13976;DHT22;7062;49.792;9.946;2023-08-24T13:09:23;42.00;58.10
13976;DHT22;7062;49.792;9.946;2023-08-24T13:11:49;42.20;57.30
13976;DHT22;7062;49.792;9.946;2023-08-24T13:14:15;42.50;56.60
13976;DHT22;7062;49.792;9.946;2023-08-24T13:16:41;42.50;56.30
13976;DHT22;7062;49.792;9.946;2023-08-24T13:19:06;42.60;56.10
13976;DHT22;7062;49.792;9.946;2023-08-24T13:21:33;42.50;56.40
13976;DHT22;7062;49.792;9.946;2023-08-24T13:23:59;42.00;57.20
13976;DHT22;7062;49.792;9.946;2023-08-24T13:26:24;41.10;58.20
13976;DHT22;7062;49.792;9.946;2023-08-24T13:28:51;41.10;57.60
13976;DHT22;7062;49.792;9.946;2023-08-24T13:31:17;40.60;58.20
13976;DHT22;7062;49.792;9.946;2023-08-24T13:33:44;41.20;57.30
13976;DHT22;7062;49.792;9.946;2023-08-24T13:36:09;42.50;56.10
13976;DHT22;7062;49.792;9.946;2023-08-24T13:38:35;43.10;54.90
13976;DHT22;7062;49.792;9.946;2023-08-24T13:41:01;43.50;54.70
13976;DHT22;7062;49.792;9.946;2023-08-24T13:43:27;43.70;54.10
13976;DHT22;7062;49.792;9.946;2023-08-24T13:45:52;44.50;53.60
13976;DHT22;7062;49.792;9.946;2023-08-24T13:48:18;45.40;52.90
13976;DHT22;7062;49.792;9.946;2023-08-24T13:50:50;45.30;52.80
13976;DHT22;7062;49.792;9.946;2023-08-24T13:53:20;45.80;51.60
13976;DHT22;7062;49.792;9.946;2023-08-24T13:55:45;46.00;51.40
13976;DHT22;7062;49.792;9.946;2023-08-24T13:58:11;46.00;51.60
13976;DHT22;7062;49.792;9.946;2023-08-24T14:00:36;45.80;51.40
13976;DHT22;7062;49.792;9.946;2023-08-24T14:03:03;46.30;51.10
13976;DHT22;7062;49.792;9.946;2023-08-24T14:05:28;46.90;50.30
13976;DHT22;7062;49.792;9.946;2023-08-24T14:07:54;46.70;50.30
13976;DHT22;7062;49.792;9.946;2023-08-24T14:10:20;47.20;50.10
13976;DHT22;7062;49.792;9.946;2023-08-24T14:12:46;47.20;49.50
13976;DHT22;7062;49.792;9.946;2023-08-24T14:15:11;46.70;50.00
13976;DHT22;7062;49.792;9.946;2023-08-24T14:17:37;46.90;49.60
13976;DHT22;7062;49.792;9.946;2023-08-24T14:20:03;46.70;49.40
13976;DHT22;7062;49.792;9.946;2023-08-24T14:22:34;47.20;48.90
13976;DHT22;7062;49.792;9.946;2023-08-24T14:24:59;47.40;48.20
13976;DHT22;7062;49.792;9.946;2023-08-24T14:27:25;46.30;49.00
13976;DHT22;7062;49.792;9.946;2023-08-24T14:29:51;45.40;49.50
13976;DHT22;7062;49.792;9.946;2023-08-24T14:32:17;43.10;51.90
13976;DHT22;7062;49.792;9.946;2023-08-24T14:34:43;42.00;52.90
13976;DHT22;7062;49.792;9.946;2023-08-24T14:37:08;40.30;54.70
13976;DHT22;7062;49.792;9.946;2023-08-24T14:39:34;40.40;55.10
13976;DHT22;7062;49.792;9.946;2023-08-24T14:42:00;40.90;54.40
13976;DHT22;7062;49.792;9.946;2023-08-24T14:44:28;42.00;53.30
13976;DHT22;7062;49.792;9.946;2023-08-24T14:46:54;42.10;53.10
13976;DHT22;7062;49.792;9.946;2023-08-24T14:49:19;42.60;52.90
13976;DHT22;7062;49.792;9.946;2023-08-24T14:51:45;43.30;52.20
13976;DHT22;7062;49.792;9.946;2023-08-24T14:54:11;44.00;51.70
13976;DHT22;7062;49.792;9.946;2023-08-24T14:56:39;43.60;51.90
13976;DHT22;7062;49.792;9.946;2023-08-24T14:59:05;43.30;53.00
13976;DHT22;7062;49.792;9.946;2023-08-24T15:01:31;43.20;52.10
13976;DHT22;7062;49.792;9.946;2023-08-24T15:03:56;41.80;53.30
13976;DHT22;7062;49.792;9.946;2023-08-24T15:06:22;41.40;54.00
13976;DHT22;7062;49.792;9.946;2023-08-24T15:08:48;40.90;54.70
13976;DHT22;7062;49.792;9.946;2023-08-24T15:11:14;40.20;55.60
13976;DHT22;7062;49.792;9.946;2023-08-24T15:13:41;40.00;56.00
13976;DHT22;7062;49.792;9.946;2023-08-24T15:16:06;39.80;56.20
13976;DHT22;7062;49.792;9.946;2023-08-24T15:18:32;39.40;56.80
13976;DHT22;7062;49.792;9.946;2023-08-24T15:20:58;39.10;57.30
13976;DHT22;7062;49.792;9.946;2023-08-24T15:23:28;38.90;58.00
13976;DHT22;7062;49.792;9.946;2023-08-24T15:25:58;38.60;58.10
13976;DHT22;7062;49.792;9.946;2023-08-24T15:28:25;38.40;59.20
13976;DHT22;7062;49.792;9.946;2023-08-24T15:30:51;37.60;59.60
13976;DHT22;7062;49.792;9.946;2023-08-24T15:33:18;36.90;60.50
13976;DHT22;7062;49.792;9.946;2023-08-24T15:35:44;35.60;62.70
13976;DHT22;7062;49.792;9.946;2023-08-24T15:38:10;34.90;63.90
13976;DHT22;7062;49.792;9.946;2023-08-24T15:40:37;34.30;65.30
13976;DHT22;7062;49.792;9.946;2023-08-24T15:43:05;34.20;65.90
13976;DHT22;7062;49.792;9.946;2023-08-24T15:45:31;34.00;66.40
13976;DHT22;7062;49.792;9.946;2023-08-24T15:47:59;33.80;67.00
13976;DHT22;7062;49.792;9.946;2023-08-24T15:50:25;33.70;67.60
13976;DHT22;7062;49.792;9.946;2023-08-24T15:52:51;33.60;67.90
13976;DHT22;7062;49.792;9.946;2023-08-24T15:55:29;33.40;68.40
13976;DHT22;7062;49.792;9.946;2023-08-24T15:58:01;33.30;68.70